Time;durP1;ratioP1;P1;durP2;ratioP2;P2;SDS_P1;SDS_P2;PMS_P1;PMS_P2;Temp;Humidity;BMP_temperature;BMP_pressure;BME280_temperature;BME280_humidity;BME280_pressure;Samples;Min_cycle;Max_cycle;Signal;HPM_P1;HPM_P2
2021/06/29 00:01:27;;;;;;;9.23;5.80;;;21.10;99.90;;;;;;5071148;28;20530;-76
2021/06/29 00:03:54;;;;;;;5.73;5.23;;;21.10;99.90;;;;;;5070105;28;20841;-76
2021/06/29 00:06:21;;;;;;;6.07;5.53;;;21.10;99.90;;;;;;5094849;28;20474;-76
2021/06/29 00:08:48;;;;;;;5.60;5.10;;;21.20;99.90;;;;;;5089395;28;20928;-76
2021/06/29 00:11:16;;;;;;;7.97;5.93;;;21.20;99.90;;;;;;5082185;28;20509;-75
2021/06/29 00:13:44;;;;;;;9.93;7.60;;;21.20;99.90;;;;;;5083555;28;20463;-75
2021/06/29 00:16:11;;;;;;;7.87;7.07;;;21.20;99.90;;;;;;5071374;28;20545;-75
2021/06/29 00:18:38;;;;;;;6.80;6.10;;;21.20;99.90;;;;;;5070841;28;20431;-75
2021/06/29 00:21:05;;;;;;;6.97;6.33;;;21.10;99.90;;;;;;5074118;28;20482;-75
2021/06/29 00:23:37;;;;;;;7.57;6.37;;;21.00;99.90;;;;;;5088327;28;20420;-76
2021/06/29 00:26:05;;;;;;;8.73;7.33;;;21.00;99.90;;;;;;5083330;28;20950;-76
2021/06/29 00:28:32;;;;;;;7.83;7.00;;;20.90;99.90;;;;;;5069934;28;20456;-76
2021/06/29 00:31:00;;;;;;;8.27;7.47;;;20.90;99.90;;;;;;5070235;28;20436;-76
2021/06/29 00:33:27;;;;;;;9.13;8.23;;;20.80;99.90;;;;;;5071114;28;20460;-76
2021/06/29 00:35:54;;;;;;;8.70;7.67;;;20.80;99.90;;;;;;5093874;28;20478;-76
2021/06/29 00:38:21;;;;;;;9.30;7.73;;;20.80;99.90;;;;;;5092138;28;20545;-75
2021/06/29 00:40:48;;;;;;;9.80;7.83;;;20.70;99.90;;;;;;5087666;28;20423;-76
2021/06/29 00:43:15;;;;;;;8.53;7.63;;;20.70;99.90;;;;;;5086355;28;20534;-76
2021/06/29 00:45:42;;;;;;;10.07;8.57;;;20.70;99.90;;;;;;5090255;28;20462;-76
2021/06/29 00:48:10;;;;;;;9.63;8.57;;;20.60;99.90;;;;;;5090886;28;20438;-76
2021/06/29 00:50:39;;;;;;;9.47;8.47;;;20.60;99.90;;;;;;5077830;28;20463;-76
2021/06/29 00:53:07;;;;;;;8.77;7.97;;;20.50;99.90;;;;;;5083925;28;20431;-76
2021/06/29 00:55:33;;;;;;;8.70;7.80;;;20.50;99.90;;;;;;5085215;28;21003;-76
2021/06/29 00:58:01;;;;;;;9.07;8.17;;;20.40;99.90;;;;;;5089036;28;20689;-76
2021/06/29 01:00:28;;;;;;;7.70;7.00;;;20.40;99.90;;;;;;5074372;28;20443;-76
2021/06/29 01:02:55;;;;;;;8.73;6.17;;;20.30;99.90;;;;;;5069799;28;20926;-76
2021/06/29 01:05:23;;;;;;;5.97;5.37;;;20.30;99.90;;;;;;5089188;28;21013;-76
2021/06/29 01:07:50;;;;;;;6.53;5.93;;;20.20;99.90;;;;;;5081439;28;20447;-75
2021/06/29 01:10:19;;;;;;;5.73;5.13;;;20.20;99.90;;;;;;5086188;28;20448;-76
2021/06/29 01:12:46;;;;;;;5.83;4.70;;;20.20;99.90;;;;;;5088423;28;20524;-75
2021/06/29 01:15:13;;;;;;;5.17;4.77;;;20.10;99.90;;;;;;5080147;28;20467;-76
2021/06/29 01:17:40;;;;;;;18.97;6.53;;;20.10;99.90;;;;;;5087743;28;20823;-76
2021/06/29 01:20:13;;;;;;;5.23;4.73;;;20.10;99.90;;;;;;5072426;28;20463;-76
2021/06/29 01:22:41;;;;;;;4.73;4.23;;;20.10;99.90;;;;;;5085438;28;20536;-75
2021/06/29 01:25:11;;;;;;;5.40;4.73;;;20.00;99.90;;;;;;5088769;28;20458;-75
2021/06/29 01:27:46;;;;;;;4.60;4.20;;;20.00;99.90;;;;;;5070214;28;20933;-76
2021/06/29 01:32:55;;;;;;;4.73;4.33;;;20.00;99.90;;;;;;5078478;28;20941;-76
2021/06/29 01:35:23;;;;;;;4.63;4.23;;;20.00;99.90;;;;;;5076065;28;21037;-76
2021/06/29 01:37:52;;;;;;;5.07;4.67;;;20.00;99.90;;;;;;5085479;28;20447;-76
2021/06/29 01:40:22;;;;;;;4.93;4.53;;;19.90;99.90;;;;;;5089239;28;20485;-76
2021/06/29 01:42:53;;;;;;;4.97;4.57;;;19.90;99.90;;;;;;5086111;28;20554;-75
2021/06/29 01:45:19;;;;;;;5.60;5.10;;;19.90;99.90;;;;;;5089604;28;20470;-76
2021/06/29 01:47:56;;;;;;;5.80;5.30;;;19.90;99.90;;;;;;5077246;28;20856;-76
2021/06/29 01:50:24;;;;;;;5.90;5.30;;;19.90;99.90;;;;;;5071747;28;20945;-75
2021/06/29 01:52:56;;;;;;;5.90;5.00;;;19.90;99.90;;;;;;5084667;28;20459;-75
2021/06/29 01:55:23;;;;;;;6.10;5.50;;;19.80;99.90;;;;;;5071424;28;20825;-75
2021/06/29 01:57:51;;;;;;;5.70;5.20;;;19.80;99.90;;;;;;5077975;28;20455;-75
2021/06/29 02:00:19;;;;;;;6.07;5.47;;;19.80;99.90;;;;;;5086601;28;20435;-76
2021/06/29 02:02:47;;;;;;;5.70;5.20;;;19.80;99.90;;;;;;5074987;28;20451;-76
2021/06/29 02:05:14;;;;;;;4.90;4.47;;;19.80;99.90;;;;;;5069156;28;21022;-76
2021/06/29 02:07:43;;;;;;;5.07;4.63;;;19.70;99.90;;;;;;5069978;28;20463;-76
2021/06/29 02:10:11;;;;;;;5.23;4.83;;;19.70;99.90;;;;;;5070588;28;20464;-76
2021/06/29 02:12:38;;;;;;;5.40;5.00;;;19.70;99.90;;;;;;5071302;28;20468;-76
2021/06/29 02:15:06;;;;;;;5.73;5.23;;;19.60;99.90;;;;;;5070376;28;20456;-76
2021/06/29 02:17:33;;;;;;;4.90;4.40;;;19.60;99.90;;;;;;5069662;28;20817;-76
2021/06/29 02:20:00;;;;;;;6.20;5.00;;;19.60;99.90;;;;;;5082975;28;20465;-76
2021/06/29 02:22:27;;;;;;;5.83;5.27;;;19.60;99.90;;;;;;5073609;28;20447;-76
2021/06/29 02:24:55;;;;;;;6.10;5.20;;;19.60;99.90;;;;;;5088937;28;20827;-76
2021/06/29 02:27:22;;;;;;;5.37;4.87;;;19.60;99.90;;;;;;5085969;28;20814;-76
2021/06/29 02:29:49;;;;;;;6.13;5.53;;;19.50;99.90;;;;;;5083055;28;20456;-76
2021/06/29 02:32:17;;;;;;;5.87;5.37;;;19.50;99.90;;;;;;5071283;28;20432;-77
2021/06/29 02:34:44;;;;;;;5.33;4.83;;;19.50;99.90;;;;;;5079547;28;20451;-76
2021/06/29 02:37:10;;;;;;;5.90;5.40;;;19.50;99.90;;;;;;5091156;28;20493;-76
2021/06/29 02:39:37;;;;;;;4.80;4.40;;;19.40;99.90;;;;;;5086593;28;20451;-76
2021/06/29 02:42:07;;;;;;;7.20;6.37;;;19.40;99.90;;;;;;5086158;28;20871;-76
2021/06/29 02:44:35;;;;;;;5.43;4.93;;;19.40;99.90;;;;;;5082290;28;20448;-76
2021/06/29 02:47:02;;;;;;;6.47;5.77;;;19.40;99.90;;;;;;5079314;28;20980;-76
2021/06/29 02:49:29;;;;;;;6.47;5.63;;;19.40;99.90;;;;;;5087970;28;20443;-76
2021/06/29 02:51:57;;;;;;;5.30;4.90;;;19.30;99.90;;;;;;5083780;28;20459;-76
2021/06/29 02:54:24;;;;;;;5.90;5.30;;;19.30;99.90;;;;;;5093419;28;20440;-76
2021/06/29 02:56:51;;;;;;;5.70;5.13;;;19.30;99.90;;;;;;5091906;28;20501;-76
2021/06/29 02:59:19;;;;;;;5.97;5.40;;;19.30;99.90;;;;;;5094411;28;20869;-76
2021/06/29 03:01:46;;;;;;;6.93;5.47;;;19.20;99.90;;;;;;5091980;28;20788;-76
2021/06/29 03:04:13;;;;;;;5.73;5.03;;;19.20;99.90;;;;;;5084230;28;20451;-76
2021/06/29 03:06:40;;;;;;;5.57;5.07;;;19.20;99.90;;;;;;5090781;28;20447;-76
2021/06/29 03:09:09;;;;;;;5.57;5.07;;;19.10;99.90;;;;;;5083487;28;20471;-76
2021/06/29 03:11:37;;;;;;;5.63;5.17;;;19.10;99.90;;;;;;5070903;28;20525;-76
2021/06/29 03:14:04;;;;;;;5.33;4.43;;;19.10;99.90;;;;;;5080086;28;20943;-76
2021/06/29 03:16:32;;;;;;;4.77;4.37;;;19.00;99.90;;;;;;5073974;28;20494;-76
2021/06/29 03:18:59;;;;;;;4.63;4.20;;;19.00;99.90;;;;;;5077175;28;20454;-76
2021/06/29 03:21:26;;;;;;;4.83;4.40;;;19.00;99.90;;;;;;5085478;28;20452;-76
2021/06/29 03:23:54;;;;;;;4.30;3.90;;;19.00;99.90;;;;;;5072988;28;20984;-76
2021/06/29 03:26:21;;;;;;;3.80;3.50;;;18.90;99.90;;;;;;5071573;28;20976;-76
2021/06/29 03:28:48;;;;;;;4.30;3.93;;;18.90;99.90;;;;;;5071447;28;20972;-76
2021/06/29 03:31:15;;;;;;;4.00;3.70;;;18.90;99.90;;;;;;5093245;28;20450;-76
2021/06/29 03:33:43;;;;;;;3.87;3.57;;;18.90;99.90;;;;;;5096434;28;20428;-76
2021/06/29 03:36:11;;;;;;;3.83;3.53;;;18.90;99.90;;;;;;5075009;28;20511;-76
2021/06/29 03:38:39;;;;;;;5.50;3.80;;;18.80;99.90;;;;;;5070283;28;20475;-76
2021/06/29 03:41:06;;;;;;;3.80;3.40;;;18.80;99.90;;;;;;5071538;28;20439;-76
2021/06/29 03:43:34;;;;;;;3.30;3.00;;;18.80;99.90;;;;;;5072232;28;20455;-76
2021/06/29 03:46:02;;;;;;;3.93;3.50;;;18.80;99.90;;;;;;5092404;28;20521;-76
2021/06/29 03:48:29;;;;;;;4.23;2.73;;;18.80;99.90;;;;;;5086066;28;20489;-76
2021/06/29 03:50:57;;;;;;;4.10;2.90;;;18.80;99.90;;;;;;5085892;28;20474;-76
2021/06/29 03:53:24;;;;;;;4.57;2.90;;;18.80;99.90;;;;;;5091474;28;20439;-76
2021/06/29 03:55:51;;;;;;;4.70;3.83;;;18.80;99.90;;;;;;5088356;28;20482;-76
2021/06/29 03:58:18;;;;;;;3.53;2.80;;;18.70;99.90;;;;;;5069664;28;21242;-76
2021/06/29 04:00:45;;;;;;;4.10;2.80;;;18.80;99.90;;;;;;5078977;28;20455;-76
2021/06/29 04:03:12;;;;;;;2.60;2.40;;;18.70;99.90;;;;;;5086811;28;20431;-76
2021/06/29 04:05:39;;;;;;;4.37;3.40;;;18.70;99.90;;;;;;5086574;28;20549;-76
2021/06/29 04:08:07;;;;;;;4.20;2.90;;;18.80;99.90;;;;;;5090072;28;20443;-76
2021/06/29 04:10:34;;;;;;;3.23;2.80;;;18.80;99.90;;;;;;5082719;28;20459;-76
2021/06/29 04:13:01;;;;;;;2.67;2.40;;;18.80;99.90;;;;;;5074870;28;20457;-76
2021/06/29 04:15:29;;;;;;;3.27;2.97;;;18.80;99.90;;;;;;5081094;28;20464;-76
2021/06/29 04:17:55;;;;;;;4.07;3.03;;;18.80;99.90;;;;;;5083283;28;20564;-76
2021/06/29 04:20:22;;;;;;;3.50;3.20;;;18.80;99.90;;;;;;5091130;28;20431;-76
2021/06/29 04:22:49;;;;;;;2.70;2.43;;;18.90;99.90;;;;;;5078009;28;20456;-76
2021/06/29 04:25:18;;;;;;;3.60;2.83;;;18.90;99.90;;;;;;5070921;28;20483;-76
2021/06/29 04:27:44;;;;;;;4.03;2.60;;;18.90;99.90;;;;;;5084002;28;20443;-76
2021/06/29 04:30:13;;;;;;;3.43;2.70;;;18.90;99.90;;;;;;5085451;28;20439;-76
2021/06/29 04:32:40;;;;;;;3.23;2.90;;;18.90;99.90;;;;;;5074853;28;20481;-76
2021/06/29 04:35:08;;;;;;;4.27;2.60;;;19.00;99.90;;;;;;5090559;28;20455;-76
2021/06/29 04:37:35;;;;;;;3.90;2.80;;;19.00;99.90;;;;;;5086693;28;21059;-76
2021/06/29 04:40:02;;;;;;;3.53;2.40;;;19.00;99.90;;;;;;5084343;28;20461;-76
2021/06/29 04:42:30;;;;;;;2.83;2.63;;;19.00;99.90;;;;;;5086179;28;20442;-76
2021/06/29 04:44:57;;;;;;;2.83;2.40;;;19.10;99.90;;;;;;5087474;28;20455;-76
2021/06/29 04:47:24;;;;;;;2.50;2.30;;;19.10;99.90;;;;;;5089757;28;20432;-76
2021/06/29 04:49:55;;;;;;;5.10;2.83;;;19.10;99.90;;;;;;5080874;28;20439;-76
2021/06/29 04:52:23;;;;;;;2.77;2.57;;;19.10;99.90;;;;;;5087787;28;20451;-76
2021/06/29 04:54:50;;;;;;;2.73;2.53;;;19.10;99.90;;;;;;5110956;28;20438;-76
2021/06/29 04:57:17;;;;;;;2.90;2.23;;;19.20;99.90;;;;;;5079869;28;20479;-76
2021/06/29 04:59:45;;;;;;;2.23;2.03;;;19.20;99.90;;;;;;5090073;28;20440;-76
2021/06/29 05:02:12;;;;;;;4.10;2.30;;;19.20;99.90;;;;;;5085847;28;20434;-76
2021/06/29 05:04:39;;;;;;;3.40;2.47;;;19.20;99.90;;;;;;5074627;28;20452;-76
2021/06/29 05:07:06;;;;;;;2.80;2.40;;;19.30;99.90;;;;;;5090234;28;20539;-76
2021/06/29 05:09:33;;;;;;;2.60;2.40;;;19.30;99.90;;;;;;5086942;28;20439;-76
2021/06/29 05:12:00;;;;;;;2.40;2.20;;;19.30;99.90;;;;;;5082623;28;20483;-76
2021/06/29 05:14:27;;;;;;;3.77;2.57;;;19.30;99.90;;;;;;5079317;28;20435;-76
2021/06/29 05:17:10;;;;;;;3.20;2.50;;;19.30;99.90;;;;;;5081033;28;20487;-76
2021/06/29 05:19:38;;;;;;;2.67;2.47;;;19.40;99.90;;;;;;5034805;28;20441;-76
2021/06/29 05:22:06;;;;;;;2.97;2.67;;;19.40;99.90;;;;;;5031248;28;20441;-76
2021/06/29 05:24:32;;;;;;;2.60;2.40;;;19.40;99.90;;;;;;5037217;28;20541;-76
2021/06/29 05:26:59;;;;;;;3.50;2.30;;;19.50;99.90;;;;;;5037266;28;20469;-76
2021/06/29 05:29:26;;;;;;;3.20;2.70;;;19.50;99.90;;;;;;5033889;28;20533;-76
2021/06/29 05:31:54;;;;;;;2.57;2.37;;;19.50;99.90;;;;;;5031143;28;20473;-76
2021/06/29 05:34:21;;;;;;;4.67;2.93;;;19.60;99.90;;;;;;5027954;28;20456;-76
2021/06/29 05:36:48;;;;;;;4.63;2.30;;;19.70;99.90;;;;;;5032221;28;20485;-76
2021/06/29 05:39:17;;;;;;;2.70;2.50;;;19.70;99.90;;;;;;5026344;28;20453;-76
2021/06/29 05:41:45;;;;;;;5.23;3.20;;;19.80;99.90;;;;;;5027200;28;20442;-76
2021/06/29 05:44:12;;;;;;;3.57;2.63;;;19.90;99.90;;;;;;5027818;28;20430;-76
2021/06/29 05:46:40;;;;;;;4.40;2.90;;;20.00;99.90;;;;;;5032192;28;20485;-76
2021/06/29 05:49:11;;;;;;;3.77;3.23;;;20.10;99.90;;;;;;5029193;28;20812;-76
2021/06/29 05:51:38;;;;;;;2.97;2.27;;;20.20;99.90;;;;;;5064363;28;20456;-76
2021/06/29 05:54:05;;;;;;;6.37;2.80;;;20.20;99.90;;;;;;5091812;28;20444;-77
2021/06/29 05:56:33;;;;;;;2.83;2.63;;;20.30;99.90;;;;;;5088501;28;20455;-76
2021/06/29 05:58:59;;;;;;;3.00;2.70;;;20.30;99.90;;;;;;5078000;28;20475;-76
2021/06/29 06:01:27;;;;;;;4.53;2.90;;;20.40;99.90;;;;;;5088738;28;20439;-76
2021/06/29 06:03:54;;;;;;;3.33;3.03;;;20.50;99.90;;;;;;5086494;28;20898;-77
2021/06/29 06:06:22;;;;;;;3.20;2.90;;;20.50;99.90;;;;;;5071196;28;20472;-77
2021/06/29 06:08:49;;;;;;;3.20;2.90;;;20.60;99.90;;;;;;5082275;28;20461;-78
2021/06/29 06:11:16;;;;;;;5.93;2.77;;;20.60;99.90;;;;;;5064977;28;20483;-79
2021/06/29 06:13:42;;;;;;;3.77;2.90;;;20.70;99.90;;;;;;5067680;28;20448;-78
2021/06/29 06:16:09;;;;;;;5.47;2.67;;;20.70;99.90;;;;;;5076578;28;21157;-77
2021/06/29 06:18:38;;;;;;;2.50;2.30;;;20.80;99.90;;;;;;5084963;28;20511;-78
2021/06/29 06:21:05;;;;;;;2.70;2.50;;;20.90;99.90;;;;;;5080280;28;20451;-77
2021/06/29 06:23:33;;;;;;;2.97;2.70;;;21.00;99.90;;;;;;5085212;28;20830;-77
2021/06/29 06:26:00;;;;;;;2.63;2.43;;;21.00;99.90;;;;;;5082188;28;20502;-78
2021/06/29 06:28:27;;;;;;;2.90;2.47;;;21.10;99.90;;;;;;5088268;28;20435;-78
2021/06/29 06:30:55;;;;;;;3.10;2.70;;;21.10;99.90;;;;;;5089067;28;20451;-77
2021/06/29 06:33:22;;;;;;;3.23;2.40;;;21.20;99.90;;;;;;5084496;28;20470;-77
2021/06/29 06:35:49;;;;;;;3.53;3.00;;;21.20;99.90;;;;;;5084683;28;20479;-77
2021/06/29 06:38:16;;;;;;;6.50;3.20;;;21.20;99.90;;;;;;5081921;28;20511;-76
2021/06/29 06:40:44;;;;;;;5.17;2.90;;;21.30;99.90;;;;;;5088802;28;20808;-78
2021/06/29 06:43:11;;;;;;;5.63;2.87;;;21.30;99.90;;;;;;5072318;28;20460;-77
2021/06/29 06:45:38;;;;;;;4.60;3.23;;;21.40;99.90;;;;;;5068597;28;20463;-77
2021/06/29 06:48:06;;;;;;;5.03;2.90;;;21.40;99.90;;;;;;5070563;28;20466;-78
2021/06/29 06:50:33;;;;;;;3.20;2.90;;;21.50;99.90;;;;;;5085187;28;20471;-77
2021/06/29 06:53:00;;;;;;;4.70;2.50;;;21.50;99.90;;;;;;5082997;28;20432;-77
2021/06/29 06:55:27;;;;;;;3.83;2.80;;;21.60;99.90;;;;;;5068894;28;20948;-78
2021/06/29 06:57:56;;;;;;;3.33;2.80;;;21.60;99.90;;;;;;5068231;28;20484;-77
2021/06/29 07:00:25;;;;;;;5.70;3.07;;;21.70;99.90;;;;;;5068977;28;20470;-78
2021/06/29 07:02:53;;;;;;;8.47;3.70;;;21.70;99.90;;;;;;5088280;28;20932;-77
2021/06/29 07:05:20;;;;;;;6.37;3.30;;;21.70;99.90;;;;;;5085281;28;20474;-77
2021/06/29 07:07:47;;;;;;;4.47;3.27;;;21.80;99.90;;;;;;5069101;28;20448;-76
2021/06/29 07:10:14;;;;;;;3.63;2.80;;;21.90;99.90;;;;;;5071638;28;20432;-77
2021/06/29 07:12:41;;;;;;;4.53;2.80;;;21.90;99.90;;;;;;5071295;28;20476;-77
2021/06/29 07:15:17;;;;;;;4.30;2.70;;;22.00;99.90;;;;;;5073078;28;20464;-77
2021/06/29 07:17:44;;;;;;;5.30;2.80;;;22.00;99.90;;;;;;5094771;28;20490;-79
2021/06/29 07:20:12;;;;;;;3.83;3.00;;;22.10;99.90;;;;;;5088086;28;20436;-77
2021/06/29 07:22:39;;;;;;;3.43;2.10;;;22.10;99.90;;;;;;5071897;28;20469;-76
2021/06/29 07:25:09;;;;;;;2.80;2.20;;;22.20;99.90;;;;;;5070692;28;20820;-77
2021/06/29 07:27:36;;;;;;;2.73;2.20;;;22.20;99.90;;;;;;5070638;28;20444;-77
2021/06/29 07:30:04;;;;;;;6.23;2.30;;;22.30;99.90;;;;;;5070909;28;20454;-76
2021/06/29 07:32:32;;;;;;;2.53;1.90;;;22.40;99.90;;;;;;5080884;28;20943;-77
2021/06/29 07:34:59;;;;;;;4.03;2.17;;;22.50;99.90;;;;;;5080936;28;20459;-77
2021/06/29 07:37:26;;;;;;;3.03;1.83;;;22.70;99.90;;;;;;5081886;28;20495;-77
2021/06/29 07:39:53;;;;;;;2.90;1.77;;;22.80;99.90;;;;;;5069145;28;20561;-76
2021/06/29 07:42:20;;;;;;;2.57;1.87;;;22.90;99.90;;;;;;5071385;28;20900;-77
2021/06/29 07:44:47;;;;;;;2.13;1.70;;;23.10;99.90;;;;;;5075398;28;20921;-76
2021/06/29 07:47:14;;;;;;;2.30;1.80;;;23.30;99.90;;;;;;5086369;28;20931;-77
2021/06/29 07:49:42;;;;;;;2.43;1.50;;;23.50;99.90;;;;;;5089532;28;20427;-77
2021/06/29 07:52:09;;;;;;;3.63;1.70;;;23.70;99.90;;;;;;5086759;28;20930;-77
2021/06/29 07:54:36;;;;;;;3.03;1.70;;;24.10;99.90;;;;;;5082203;28;20459;-77
2021/06/29 07:57:03;;;;;;;2.20;1.70;;;24.40;99.90;;;;;;5091664;28;20463;-77
2021/06/29 07:59:30;;;;;;;5.13;2.17;;;24.70;99.90;;;;;;5095495;28;20459;-78
2021/06/29 08:01:56;;;;;;;2.50;1.50;;;25.10;99.90;;;;;;5072811;28;20464;-78
2021/06/29 08:04:23;;;;;;;3.77;1.50;;;25.40;99.90;;;;;;5073593;28;20522;-78
2021/06/29 08:06:52;;;;;;;2.90;1.83;;;25.80;99.90;;;;;;5074409;28;20476;-78
2021/06/29 08:09:19;;;;;;;1.87;1.40;;;26.20;99.90;;;;;;5086008;28;20435;-77
2021/06/29 08:11:45;;;;;;;2.80;1.83;;;26.50;99.90;;;;;;5085556;28;20491;-79
2021/06/29 08:14:12;;;;;;;1.40;1.30;;;26.80;99.90;;;;;;5070175;28;20812;-78
2021/06/29 08:16:42;;;;;;;1.83;1.50;;;27.00;99.90;;;;;;5070845;28;20460;-78
2021/06/29 08:19:09;;;;;;;3.20;1.50;;;27.20;99.90;;;;;;5085928;28;20518;-78
2021/06/29 08:21:36;;;;;;;2.50;1.63;;;27.50;99.90;;;;;;5105782;28;20450;-77
2021/06/29 08:24:05;;;;;;;2.57;1.33;;;27.80;99.90;;;;;;5098137;28;20447;-78
2021/06/29 08:26:32;;;;;;;3.10;1.83;;;28.10;99.90;;;;;;5092476;28;20455;-78
2021/06/29 08:28:59;;;;;;;2.03;1.40;;;28.40;99.90;;;;;;5085517;28;20455;-78
2021/06/29 08:31:26;;;;;;;1.60;1.37;;;28.80;99.90;;;;;;5087929;28;20920;-78
2021/06/29 08:33:54;;;;;;;2.90;1.60;;;29.30;99.90;;;;;;5082834;28;20454;-78
2021/06/29 08:36:22;;;;;;;2.30;1.30;;;29.80;99.90;;;;;;5083077;28;20482;-78
2021/06/29 08:38:49;;;;;;;2.17;1.47;;;30.10;99.90;;;;;;5077072;28;20486;-78
2021/06/29 08:41:18;;;;;;;1.53;1.43;;;30.40;99.90;;;;;;5069399;28;20523;-78
2021/06/29 08:43:45;;;;;;;1.63;1.37;;;30.50;99.90;;;;;;5086765;28;20482;-79
2021/06/29 08:46:12;;;;;;;3.03;1.40;;;30.60;99.90;;;;;;5072811;28;20460;-78
2021/06/29 08:48:39;;;;;;;3.13;1.83;;;30.60;99.90;;;;;;5072262;28;20860;-78
2021/06/29 08:51:07;;;;;;;1.40;1.30;;;30.50;99.90;;;;;;5084658;28;20440;-78
2021/06/29 08:53:34;;;;;;;1.80;1.57;;;30.50;99.90;;;;;;5088077;28;20471;-78
2021/06/29 08:56:02;;;;;;;1.70;1.60;;;30.40;99.90;;;;;;5076130;28;20459;-78
2021/06/29 08:58:33;;;;;;;2.27;1.57;;;30.50;99.90;;;;;;5052230;28;20822;-78
2021/06/29 09:01:00;;;;;;;1.93;1.60;;;30.50;99.90;;;;;;5068326;28;20885;-78
2021/06/29 09:03:28;;;;;;;3.40;1.90;;;30.50;99.90;;;;;;5070933;28;20460;-78
2021/06/29 09:05:55;;;;;;;1.70;1.60;;;30.40;99.90;;;;;;5084480;28;21010;-79
2021/06/29 09:08:24;;;;;;;1.90;1.73;;;30.40;99.90;;;;;;5081555;28;20624;-78
2021/06/29 09:11:09;;;;;;;2.90;1.60;;;30.30;99.90;;;;;;5090168;28;20828;-78
2021/06/29 09:13:38;;;;;;;3.70;1.70;;;30.30;99.90;;;;;;5067396;28;21258;-78
2021/06/29 09:16:05;;;;;;;2.83;1.67;;;30.30;99.90;;;;;;5089947;28;20461;-78
2021/06/29 09:18:35;;;;;;;2.23;2.03;;;30.20;99.90;;;;;;5097387;28;21013;-78
2021/06/29 09:21:05;;;;;;;2.73;2.07;;;30.20;99.90;;;;;;5083543;28;20428;-80
2021/06/29 09:23:34;;;;;;;2.20;2.00;;;30.10;99.90;;;;;;5077657;28;20811;-77
2021/06/29 09:26:02;;;;;;;2.20;1.90;;;30.10;99.90;;;;;;5089819;28;20458;-80
2021/06/29 09:28:32;;;;;;;2.63;2.03;;;30.00;99.90;;;;;;5079826;28;20823;-80
2021/06/29 09:31:02;;;;;;;2.90;1.77;;;29.90;99.90;;;;;;5069625;28;20535;-79
2021/06/29 09:33:32;;;;;;;2.00;1.80;;;29.80;99.90;;;;;;5072262;28;20462;-78
2021/06/29 09:36:01;;;;;;;3.50;2.10;;;29.60;99.90;;;;;;5068621;28;20443;-78
2021/06/29 09:38:30;;;;;;;3.37;1.83;;;29.40;99.90;;;;;;5087900;28;20574;-78
2021/06/29 09:41:00;;;;;;;1.97;1.80;;;29.20;99.90;;;;;;5080487;28;20444;-79
2021/06/29 09:43:29;;;;;;;2.17;1.97;;;29.00;99.90;;;;;;5067730;28;20440;-80
2021/06/29 09:46:00;;;;;;;1.83;1.73;;;28.90;99.90;;;;;;5070048;28;20484;-77
2021/06/29 09:48:33;;;;;;;2.50;2.30;;;28.60;99.90;;;;;;5078272;28;20496;-77
2021/06/29 09:51:05;;;;;;;2.80;2.13;;;28.50;99.90;;;;;;5081701;28;20440;-77
2021/06/29 09:53:37;;;;;;;2.00;1.80;;;28.30;99.90;;;;;;5087163;28;20854;-78
2021/06/29 09:56:25;;;;;;;2.80;2.53;;;28.20;99.90;;;;;;5081468;28;20893;-77
2021/06/29 09:58:54;;;;;;;2.63;2.43;;;28.00;99.90;;;;;;5045987;28;20524;-77
2021/06/29 10:01:26;;;;;;;2.40;2.20;;;27.90;99.90;;;;;;5035276;28;20466;-77
2021/06/29 10:03:54;;;;;;;2.43;2.20;;;27.70;99.90;;;;;;5046861;28;20443;-78
2021/06/29 10:06:22;;;;;;;2.47;2.27;;;27.60;99.90;;;;;;5064232;28;20975;-79
2021/06/29 10:08:51;;;;;;;4.43;2.77;;;27.50;99.90;;;;;;5040544;28;20464;-79
2021/06/29 10:11:24;;;;;;;2.57;2.37;;;27.40;99.90;;;;;;5045763;28;20495;-80
2021/06/29 10:13:57;;;;;;;2.53;2.27;;;27.30;99.90;;;;;;5029762;28;20464;-78
2021/06/29 10:16:28;;;;;;;2.97;2.67;;;27.20;99.90;;;;;;5033577;28;20485;-77
2021/06/29 10:21:40;;;;;;;2.60;2.40;;;27.10;99.90;;;;;;5067404;28;20432;-77
2021/06/29 10:24:09;;;;;;;2.80;2.50;;;27.00;99.90;;;;;;5050909;28;20453;-80
2021/06/29 10:26:39;;;;;;;2.93;2.60;;;26.90;99.90;;;;;;5052483;28;20449;-77
2021/06/29 10:29:08;;;;;;;4.07;3.00;;;26.90;99.90;;;;;;5046847;28;20515;-78
2021/06/29 10:31:37;;;;;;;2.17;2.00;;;26.90;99.90;;;;;;5062847;28;20483;-78
2021/06/29 10:34:07;;;;;;;2.73;2.53;;;26.90;99.90;;;;;;5041030;28;20560;-78
2021/06/29 10:36:38;;;;;;;3.00;2.80;;;26.90;99.90;;;;;;5064957;28;20468;-77
2021/06/29 10:39:06;;;;;;;2.67;2.47;;;26.90;99.90;;;;;;5071173;28;20856;-78
2021/06/29 10:41:35;;;;;;;3.33;2.77;;;26.90;99.90;;;;;;5060917;28;20476;-78
2021/06/29 10:44:02;;;;;;;2.90;2.70;;;26.90;99.90;;;;;;5051020;28;20806;-78
2021/06/29 10:46:41;;;;;;;3.03;2.83;;;26.80;99.90;;;;;;5050010;28;20476;-78
2021/06/29 10:49:29;;;;;;;4.40;2.37;;;26.90;99.90;;;;;;5048558;28;20425;-78
2021/06/29 10:51:57;;;;;;;3.23;2.93;;;26.90;99.90;;;;;;5047065;28;20452;-78
2021/06/29 10:54:40;;;;;;;3.23;2.93;;;26.80;99.90;;;;;;5047403;28;20445;-78
2021/06/29 10:57:11;;;;;;;2.70;2.50;;;26.80;99.90;;;;;;5033307;28;20572;-79
2021/06/29 10:59:40;;;;;;;3.63;3.33;;;26.70;99.90;;;;;;5050577;28;20488;-78
2021/06/29 11:02:07;;;;;;;4.17;3.30;;;26.70;99.90;;;;;;5055496;28;21118;-78
2021/06/29 11:04:53;;;;;;;4.07;3.67;;;26.60;99.90;;;;;;5061654;28;20455;-78
2021/06/29 11:07:43;;;;;;;3.40;2.80;;;26.60;99.90;;;;;;5068200;28;20540;-78
2021/06/29 11:10:13;;;;;;;3.60;2.67;;;26.60;99.90;;;;;;5055629;28;21020;-78
2021/06/29 11:12:48;;;;;;;3.10;2.80;;;26.60;99.90;;;;;;5048187;28;20481;-78
2021/06/29 11:15:16;;;;;;;3.37;3.07;;;26.50;99.90;;;;;;5052193;28;20818;-80
2021/06/29 11:17:54;;;;;;;3.70;3.03;;;26.40;99.90;;;;;;5050871;28;20650;-80
2021/06/29 11:20:23;;;;;;;3.67;3.07;;;26.40;99.90;;;;;;5055551;28;20483;-79
2021/06/29 11:22:57;;;;;;;5.60;3.20;;;26.30;99.90;;;;;;5071766;28;20444;-79
2021/06/29 11:25:32;;;;;;;3.13;2.83;;;26.20;99.90;;;;;;5068190;28;20988;-79
2021/06/29 11:28:06;;;;;;;4.03;3.07;;;26.20;99.90;;;;;;5051663;28;20448;-77
2021/06/29 11:31:02;;;;;;;3.57;3.27;;;26.20;99.90;;;;;;5059518;28;20456;-78
2021/06/29 11:33:38;;;;;;;3.23;2.93;;;26.10;99.90;;;;;;5056084;28;20830;-79
2021/06/29 11:36:08;;;;;;;3.67;2.67;;;26.10;99.90;;;;;;5050146;28;20452;-80
2021/06/29 11:38:38;;;;;;;3.40;3.10;;;26.00;99.90;;;;;;5057616;28;20476;-79
2021/06/29 11:41:27;;;;;;;6.23;3.47;;;26.00;99.90;;;;;;5055016;28;20447;-79
2021/06/29 11:43:55;;;;;;;3.27;2.87;;;25.90;99.90;;;;;;5055722;28;20457;-80
2021/06/29 11:46:45;;;;;;;3.00;2.80;;;25.90;99.90;;;;;;5050851;28;20465;-80
2021/06/29 11:49:14;;;;;;;3.47;3.10;;;25.90;99.90;;;;;;5050724;28;20461;-79
2021/06/29 11:51:51;;;;;;;2.87;2.67;;;25.90;99.90;;;;;;5057803;28;20457;-80
2021/06/29 11:54:36;;;;;;;3.50;2.73;;;25.90;99.90;;;;;;5058117;28;20457;-80
2021/06/29 11:57:15;;;;;;;2.80;2.60;;;25.80;99.90;;;;;;5052286;28;20873;-79
2021/06/29 11:59:42;;;;;;;3.20;2.80;;;25.80;99.90;;;;;;5048416;28;20969;-80
2021/06/29 12:02:12;;;;;;;3.83;3.10;;;25.90;99.90;;;;;;5050278;28;20535;-79
2021/06/29 12:04:53;;;;;;;3.53;3.13;;;25.90;99.90;;;;;;5063834;28;20457;-80
2021/06/29 12:07:32;;;;;;;5.30;3.30;;;25.90;99.90;;;;;;5050729;28;20452;-79
2021/06/29 12:09:59;;;;;;;4.63;3.00;;;25.90;99.90;;;;;;5054714;28;20544;-79
2021/06/29 12:12:28;;;;;;;4.20;3.80;;;25.90;99.90;;;;;;5062027;28;20547;-80
2021/06/29 12:15:00;;;;;;;3.90;3.57;;;25.90;99.90;;;;;;5061067;28;20461;-79
2021/06/29 12:17:28;;;;;;;3.77;3.00;;;25.90;99.90;;;;;;5069603;28;20444;-78
2021/06/29 12:19:59;;;;;;;5.17;2.90;;;25.90;99.90;;;;;;5068986;28;20491;-79
2021/06/29 12:22:30;;;;;;;3.40;3.10;;;25.90;99.90;;;;;;5061770;28;20457;-79
2021/06/29 12:24:57;;;;;;;3.80;3.50;;;25.90;99.90;;;;;;5055821;28;20453;-77
2021/06/29 12:27:24;;;;;;;4.87;3.17;;;25.90;99.90;;;;;;5057409;28;20420;-77
2021/06/29 12:29:51;;;;;;;6.83;3.60;;;25.90;99.90;;;;;;5070271;28;20428;-78
2021/06/29 12:32:20;;;;;;;7.07;4.17;;;25.90;99.90;;;;;;5055030;28;21471;-77
2021/06/29 12:34:47;;;;;;;4.20;3.23;;;25.90;99.90;;;;;;5049749;28;20502;-78
2021/06/29 12:37:14;;;;;;;4.70;3.20;;;25.90;99.90;;;;;;5050863;28;20464;-78
2021/06/29 12:39:42;;;;;;;3.97;3.60;;;25.90;99.90;;;;;;5050907;28;20499;-79
2021/06/29 12:42:12;;;;;;;5.33;3.47;;;25.90;99.90;;;;;;5058474;28;20429;-78
2021/06/29 12:44:39;;;;;;;3.97;3.63;;;25.80;99.90;;;;;;5062012;28;20531;-78
2021/06/29 12:47:11;;;;;;;4.13;3.50;;;25.80;99.90;;;;;;5053275;28;20465;-79
2021/06/29 12:49:38;;;;;;;4.17;3.80;;;25.70;99.90;;;;;;5051229;28;20460;-79
2021/06/29 12:52:09;;;;;;;4.50;4.10;;;25.70;99.90;;;;;;5050234;28;20441;-77
2021/06/29 12:54:37;;;;;;;4.20;3.80;;;25.70;99.90;;;;;;5051604;28;20543;-77
2021/06/29 12:57:08;;;;;;;4.30;3.80;;;25.70;99.90;;;;;;5051104;28;20985;-78
2021/06/29 12:59:37;;;;;;;4.90;4.40;;;25.70;99.90;;;;;;5048491;28;20480;-78
2021/06/29 13:02:06;;;;;;;4.83;4.30;;;25.60;99.90;;;;;;5048894;28;20799;-78